createdAt,value
2023-08-28T00:00:33.346Z,10.43
2023-08-28T00:03:01.036Z,9.05
2023-08-28T00:05:32.554Z,9.95
2023-08-28T00:07:59.849Z,9.30
2023-08-28T00:10:27.169Z,10.02
2023-08-28T00:12:54.837Z,10.23
2023-08-28T00:15:22.188Z,10.27
2023-08-28T00:17:49.873Z,9.25
2023-08-28T00:20:17.438Z,10.88
2023-08-28T00:22:44.751Z,9.50
2023-08-28T00:25:12.742Z,8.98
2023-08-28T00:27:40.346Z,10.20
2023-08-28T00:30:08.913Z,9.20
2023-08-28T00:32:36.415Z,8.80
2023-08-28T00:35:03.983Z,10.65
2023-08-28T00:37:32.191Z,8.77
2023-08-28T00:40:00.043Z,9.32
2023-08-28T00:42:29.815Z,10.15
2023-08-28T00:44:57.426Z,9.50
2023-08-28T00:47:25.872Z,10.55
2023-08-28T00:49:53.352Z,9.25
2023-08-28T00:52:21.093Z,10.05
2023-08-28T00:54:49.117Z,9.63
2023-08-28T00:57:19.492Z,10.02
2023-08-28T00:59:47.532Z,10.10
2023-08-28T01:02:14.843Z,10.30
2023-08-28T01:04:42.160Z,9.63
2023-08-28T01:07:12.776Z,9.90
2023-08-28T01:09:52.006Z,10.43
2023-08-28T01:12:29.891Z,10.10
2023-08-28T01:14:57.100Z,11.32
2023-08-28T01:17:25.638Z,9.82
2023-08-28T01:19:53.408Z,10.93
2023-08-28T01:22:50.004Z,10.77
2023-08-28T01:25:18.795Z,10.30
2023-08-28T01:27:48.054Z,11.88
2023-08-28T01:30:18.504Z,11.27
2023-08-28T01:32:47.182Z,11.30
2023-08-28T01:35:25.900Z,10.00
2023-08-28T01:38:09.314Z,10.55
2023-08-28T01:40:42.226Z,10.95
2023-08-28T01:43:12.564Z,11.75
2023-08-28T01:45:40.494Z,10.93
2023-08-28T01:48:08.432Z,11.07
2023-08-28T01:50:35.831Z,11.13
2023-08-28T01:53:03.387Z,12.23
2023-08-28T01:55:49.691Z,11.30
2023-08-28T01:58:17.274Z,11.75
2023-08-28T02:00:44.629Z,11.65
2023-08-28T02:03:12.350Z,11.50
2023-08-28T02:05:40.377Z,11.83
2023-08-28T02:08:09.014Z,11.10
2023-08-28T02:10:36.381Z,12.02
2023-08-28T02:13:05.348Z,10.35
2023-08-28T02:15:32.881Z,12.35
2023-08-28T02:18:03.360Z,11.45
2023-08-28T02:20:35.065Z,10.75
2023-08-28T02:23:04.897Z,10.07
2023-08-28T02:25:34.739Z,11.07
2023-08-28T02:28:04.703Z,11.23
2023-08-28T02:30:35.428Z,10.55
2023-08-28T02:33:04.424Z,10.85
2023-08-28T02:35:32.693Z,10.93
2023-08-28T02:38:00.230Z,10.75
2023-08-28T02:40:27.962Z,10.65
2023-08-28T02:42:56.715Z,10.75
2023-08-28T02:45:24.030Z,10.20
2023-08-28T02:47:53.155Z,10.57
2023-08-28T02:50:20.483Z,9.98
2023-08-28T02:52:47.927Z,10.73
2023-08-28T02:55:15.207Z,9.98
2023-08-28T02:57:42.439Z,10.00
2023-08-28T03:00:10.107Z,10.38
2023-08-28T03:02:37.499Z,11.65
2023-08-28T03:05:05.150Z,12.90
2023-08-28T03:07:32.540Z,12.60
2023-08-28T03:10:00.155Z,12.07
2023-08-28T03:12:27.512Z,12.65
2023-08-28T03:14:54.818Z,12.65
2023-08-28T03:17:22.296Z,14.50
2023-08-28T03:19:50.043Z,12.48
2023-08-28T03:22:17.405Z,12.30
2023-08-28T03:24:44.672Z,13.02
2023-08-28T03:27:12.255Z,13.90
2023-08-28T03:29:39.572Z,12.95
2023-08-28T03:32:07.032Z,14.20
2023-08-28T03:34:34.513Z,14.05
2023-08-28T03:37:02.117Z,13.30
2023-08-28T03:39:29.396Z,14.73
2023-08-28T03:41:56.760Z,13.65
2023-08-28T03:44:24.274Z,13.82
2023-08-28T03:46:51.603Z,13.73
2023-08-28T03:49:18.996Z,12.73
2023-08-28T03:51:46.343Z,12.77
2023-08-28T03:54:14.739Z,12.88
2023-08-28T03:56:42.738Z,15.10
2023-08-28T03:59:10.982Z,12.67
2023-08-28T04:01:40.038Z,13.63
2023-08-28T04:04:07.486Z,12.45
2023-08-28T04:06:34.904Z,12.40
2023-08-28T04:09:02.193Z,12.75
2023-08-28T04:11:29.495Z,12.23
2023-08-28T04:13:56.780Z,12.60
2023-08-28T04:16:24.164Z,12.82
2023-08-28T04:18:51.486Z,11.60
2023-08-28T04:21:19.092Z,13.25
2023-08-28T04:23:46.373Z,11.63
2023-08-28T04:26:13.739Z,11.52
2023-08-28T04:28:42.570Z,11.32
2023-08-28T04:31:12.380Z,11.13
2023-08-28T04:33:42.978Z,11.90
2023-08-28T04:36:15.683Z,12.85
2023-08-28T04:38:44.864Z,11.40
2023-08-28T04:41:14.171Z,12.63
2023-08-28T04:43:42.048Z,10.80
2023-08-28T04:46:09.405Z,10.63
2023-08-28T04:48:36.736Z,11.13
2023-08-28T04:51:06.048Z,12.02
2023-08-28T04:53:33.422Z,12.35
2023-08-28T04:56:00.691Z,10.27
2023-08-28T04:58:29.937Z,10.55
2023-08-28T05:00:57.656Z,10.52
2023-08-28T05:03:25.071Z,10.77
2023-08-28T05:05:53.943Z,9.95
2023-08-28T05:08:21.217Z,9.73
2023-08-28T05:10:48.528Z,10.45
2023-08-28T05:13:15.831Z,10.93
2023-08-28T05:15:43.220Z,10.48
2023-08-28T05:18:13.014Z,10.53
2023-08-28T05:20:41.081Z,11.63
2023-08-28T05:23:08.517Z,10.70
2023-08-28T05:25:35.821Z,10.32
2023-08-28T05:28:03.216Z,11.77
2023-08-28T05:30:30.534Z,10.93
2023-08-28T05:32:57.911Z,12.40
2023-08-28T05:35:25.351Z,11.88
2023-08-28T05:37:52.845Z,12.50
2023-08-28T05:40:20.164Z,14.88
2023-08-28T05:42:48.132Z,13.15
2023-08-28T05:45:15.504Z,13.23
2023-08-28T05:47:42.903Z,14.25
2023-08-28T05:50:10.457Z,14.48
2023-08-28T05:52:39.233Z,14.45
2023-08-28T05:55:07.097Z,15.70
2023-08-28T05:57:35.828Z,15.50
2023-08-28T06:00:04.270Z,17.13
2023-08-28T06:02:39.808Z,14.60
2023-08-28T06:05:07.588Z,16.80
2023-08-28T06:07:34.832Z,17.10
2023-08-28T06:12:31.227Z,17.38
2023-08-28T06:14:58.654Z,18.63
2023-08-28T06:17:26.079Z,17.25
2023-08-28T06:19:53.383Z,18.33
2023-08-28T06:22:20.794Z,18.63
2023-08-28T06:24:53.602Z,17.55
2023-08-28T06:27:21.290Z,17.70
2023-08-28T06:29:48.692Z,19.55
2023-08-28T06:32:16.233Z,19.00
2023-08-28T06:34:43.536Z,19.05
2023-08-28T06:37:10.986Z,17.20
2023-08-28T06:39:38.345Z,18.02
2023-08-28T06:42:05.808Z,18.67
2023-08-28T06:44:36.006Z,17.20
2023-08-28T06:47:03.971Z,17.40
2023-08-28T06:49:31.639Z,17.40
2023-08-28T06:51:58.943Z,16.77
2023-08-28T06:54:29.767Z,15.20
2023-08-28T06:57:04.148Z,16.08
2023-08-28T06:59:31.472Z,16.10
2023-08-28T07:01:58.780Z,13.43
2023-08-28T07:04:26.109Z,13.05
2023-08-28T07:06:53.435Z,12.30
2023-08-28T07:09:20.784Z,11.27
2023-08-28T07:11:48.200Z,12.98
2023-08-28T07:14:15.722Z,13.52
2023-08-28T07:16:43.129Z,14.05
2023-08-28T07:19:10.494Z,11.75
2023-08-28T07:21:37.753Z,11.35
2023-08-28T07:24:05.256Z,13.27
2023-08-28T07:26:33.612Z,9.93
2023-08-28T07:29:01.075Z,9.23
2023-08-28T07:31:28.389Z,8.98
2023-08-28T07:33:56.220Z,8.27
2023-08-28T07:36:24.930Z,5.03
2023-08-28T07:38:52.566Z,4.35
2023-08-28T07:41:21.217Z,2.67
2023-08-28T07:43:49.003Z,2.85
2023-08-28T07:46:16.400Z,2.30
2023-08-28T07:48:43.769Z,2.05
2023-08-28T07:51:11.426Z,2.03
2023-08-28T07:53:41.077Z,1.80
2023-08-28T07:56:08.424Z,1.77
2023-08-28T07:58:35.935Z,1.98
2023-08-28T08:01:03.282Z,1.63
2023-08-28T08:03:31.130Z,2.65
2023-08-28T08:05:58.432Z,1.90
2023-08-28T08:08:25.697Z,2.28
2023-08-28T08:10:52.985Z,2.20
2023-08-28T08:13:20.267Z,2.10
2023-08-28T08:15:47.540Z,2.00
2023-08-28T08:18:14.897Z,1.70
2023-08-28T08:20:42.187Z,2.15
2023-08-28T08:23:09.483Z,2.40
2023-08-28T08:25:36.824Z,2.20
2023-08-28T08:28:04.372Z,2.88
2023-08-28T08:30:31.882Z,2.88
2023-08-28T08:32:59.386Z,2.40
2023-08-28T08:35:26.734Z,2.75
2023-08-28T08:37:54.382Z,2.60
2023-08-28T08:40:25.987Z,2.80
2023-08-28T08:42:53.930Z,2.75
2023-08-28T08:45:23.059Z,3.05
2023-08-28T08:47:52.322Z,2.85
2023-08-28T08:50:20.913Z,2.83
2023-08-28T08:52:49.567Z,3.00
2023-08-28T08:55:25.888Z,3.53
2023-08-28T08:57:56.600Z,3.30
2023-08-28T09:00:24.266Z,2.72
2023-08-28T09:02:54.043Z,2.80
2023-08-28T09:05:23.595Z,2.60
2023-08-28T09:07:53.970Z,2.47
2023-08-28T09:10:21.568Z,3.10
2023-08-28T09:12:50.824Z,2.90
2023-08-28T09:15:19.206Z,3.50
2023-08-28T09:17:46.741Z,3.33
2023-08-28T09:20:18.248Z,2.78
2023-08-28T09:22:53.171Z,2.10
2023-08-28T09:25:22.874Z,2.53
2023-08-28T09:27:50.796Z,2.15
2023-08-28T09:30:37.254Z,1.65
2023-08-28T09:33:09.845Z,2.28
2023-08-28T09:35:39.135Z,2.20
2023-08-28T09:38:10.844Z,2.13
2023-08-28T09:40:40.772Z,1.85
2023-08-28T09:43:15.002Z,1.85
2023-08-28T09:45:43.476Z,2.30
2023-08-28T09:48:12.053Z,1.88
2023-08-28T09:50:40.892Z,1.83
2023-08-28T09:55:55.795Z,2.03
2023-08-28T09:58:26.995Z,1.67
2023-08-28T10:00:57.076Z,1.50
2023-08-28T10:03:25.847Z,1.10
2023-08-28T10:05:55.723Z,1.60
2023-08-28T10:08:28.810Z,1.58
2023-08-28T10:10:57.666Z,1.52
2023-08-28T10:15:58.644Z,1.50
2023-08-28T10:18:37.977Z,1.20
2023-08-28T10:21:07.090Z,1.30
2023-08-28T10:23:35.988Z,1.20
2023-08-28T10:28:30.770Z,1.15
2023-08-28T10:31:00.087Z,1.20
2023-08-28T10:33:27.843Z,1.20
2023-08-28T10:35:55.951Z,1.23
2023-08-28T10:38:23.851Z,1.63
2023-08-28T10:40:53.038Z,1.42
2023-08-28T10:43:25.274Z,1.73
2023-08-28T10:45:53.933Z,1.80
2023-08-28T10:48:22.078Z,1.35
2023-08-28T10:50:49.728Z,1.50
2023-08-28T10:53:17.490Z,1.27
2023-08-28T10:56:03.907Z,0.80
2023-08-28T10:58:31.959Z,0.93
2023-08-28T11:01:16.764Z,0.90
2023-08-28T11:03:54.368Z,0.98
2023-08-28T11:06:46.692Z,1.00
2023-08-28T11:09:30.174Z,0.80
2023-08-28T11:12:10.395Z,0.80
2023-08-28T11:14:53.386Z,0.63
2023-08-28T11:17:27.737Z,0.80
2023-08-28T11:20:02.035Z,1.10
2023-08-28T11:22:35.891Z,0.90
2023-08-28T11:25:16.292Z,0.82
2023-08-28T11:27:54.566Z,1.13
2023-08-28T11:30:23.723Z,0.77
2023-08-28T11:32:52.847Z,0.95
2023-08-28T11:35:21.062Z,1.05
2023-08-28T11:37:49.283Z,1.00
2023-08-28T11:40:20.813Z,0.93
2023-08-28T11:42:49.025Z,0.90
2023-08-28T11:45:34.928Z,1.08
2023-08-28T11:48:02.758Z,0.90
2023-08-28T11:50:30.183Z,0.90
2023-08-28T11:52:57.530Z,1.52
2023-08-28T11:55:25.283Z,0.70
2023-08-28T11:57:53.016Z,0.65
2023-08-28T12:00:22.389Z,0.50
2023-08-28T12:05:18.008Z,0.80
2023-08-28T12:07:46.021Z,1.10
2023-08-28T12:10:14.263Z,0.80
2023-08-28T12:12:42.213Z,0.93
2023-08-28T12:15:09.840Z,0.73
2023-08-28T12:17:37.881Z,0.70
2023-08-28T12:20:07.809Z,0.80
2023-08-28T12:22:43.271Z,0.80
2023-08-28T12:25:10.588Z,1.08
2023-08-28T12:27:39.251Z,0.82
2023-08-28T12:32:34.188Z,0.77
2023-08-28T12:35:28.245Z,0.80
2023-08-28T12:37:56.188Z,0.80
2023-08-28T12:40:23.432Z,0.70
2023-08-28T12:42:56.292Z,0.80
2023-08-28T12:45:25.222Z,1.05
2023-08-28T12:47:52.774Z,0.70
2023-08-28T12:50:24.153Z,1.10
2023-08-28T12:52:52.081Z,1.13
2023-08-28T12:55:19.509Z,0.85
2023-08-28T12:57:46.821Z,1.00
2023-08-28T13:00:14.399Z,0.95
2023-08-28T13:02:41.722Z,0.80
2023-08-28T13:05:09.151Z,0.80
2023-08-28T13:07:42.973Z,0.90
2023-08-28T13:10:14.814Z,0.85
2023-08-28T13:12:42.096Z,0.82
2023-08-28T13:15:09.622Z,0.90
2023-08-28T13:17:44.197Z,1.45
2023-08-28T13:20:26.394Z,0.73
2023-08-28T13:23:15.357Z,1.20
2023-08-28T13:28:10.651Z,0.90
2023-08-28T13:30:39.215Z,0.80
2023-08-28T13:35:34.458Z,0.70
2023-08-28T13:38:02.129Z,0.80
2023-08-28T13:40:29.656Z,0.80
2023-08-28T13:42:57.194Z,1.25
2023-08-28T13:45:24.581Z,0.95
2023-08-28T13:47:51.935Z,0.80
2023-08-28T13:50:19.453Z,1.20
2023-08-28T13:52:47.407Z,1.05
2023-08-28T13:55:14.784Z,0.85
2023-08-28T13:57:42.206Z,0.82
2023-08-28T14:00:13.201Z,0.77
2023-08-28T14:02:47.624Z,0.77
2023-08-28T14:05:15.490Z,3.78
2023-08-28T14:07:43.401Z,1.20
2023-08-28T14:10:11.693Z,2.88
2023-08-28T14:12:39.234Z,2.50
2023-08-28T14:15:07.612Z,1.70
2023-08-28T14:17:35.038Z,1.52
2023-08-28T14:20:02.991Z,1.52
2023-08-28T14:22:30.611Z,1.10
2023-08-28T14:24:57.896Z,2.00
2023-08-28T14:27:27.850Z,2.25
2023-08-28T14:30:02.839Z,1.65
2023-08-28T14:32:30.372Z,1.98
2023-08-28T14:34:57.736Z,1.73
2023-08-28T14:37:25.041Z,1.23
2023-08-28T14:39:52.463Z,1.00
2023-08-28T14:42:19.851Z,1.10
2023-08-28T14:44:47.176Z,0.98
2023-08-28T14:47:14.497Z,1.00
2023-08-28T14:49:42.648Z,0.60
2023-08-28T14:52:10.638Z,0.80
2023-08-28T14:54:37.910Z,0.50
2023-08-28T14:57:05.465Z,1.30
2023-08-28T14:59:32.744Z,1.35
2023-08-28T15:02:00.048Z,1.13
2023-08-28T15:04:27.438Z,0.80
2023-08-28T15:06:55.078Z,0.50
2023-08-28T15:09:23.846Z,0.47
2023-08-28T15:11:51.198Z,0.73
2023-08-28T15:14:18.488Z,0.68
2023-08-28T15:16:45.924Z,0.85
2023-08-28T15:19:13.297Z,1.73
2023-08-28T15:21:40.587Z,0.90
2023-08-28T15:24:07.995Z,0.60
2023-08-28T15:26:35.304Z,0.60
2023-08-28T15:29:02.732Z,0.68
2023-08-28T15:31:30.080Z,0.73
2023-08-28T15:33:57.392Z,0.55
2023-08-28T15:36:24.705Z,1.00
2023-08-28T15:38:51.951Z,0.90
2023-08-28T15:41:19.393Z,0.98
2023-08-28T15:43:46.652Z,1.52
2023-08-28T15:46:14.034Z,1.00
2023-08-28T15:48:42.513Z,1.23
2023-08-28T15:51:09.800Z,0.90
2023-08-28T15:53:37.197Z,1.00
2023-08-28T15:56:04.548Z,1.60
2023-08-28T15:58:31.953Z,1.55
2023-08-28T16:01:01.967Z,1.73
2023-08-28T16:03:30.504Z,1.20
2023-08-28T16:05:58.190Z,1.42
2023-08-28T16:08:25.570Z,1.50
2023-08-28T16:10:52.960Z,0.85
2023-08-28T16:13:20.413Z,0.90
2023-08-28T16:15:48.654Z,2.22
2023-08-28T16:18:16.186Z,1.10
2023-08-28T16:20:44.158Z,0.90
2023-08-28T16:23:13.468Z,0.80
2023-08-28T16:25:42.363Z,0.98
2023-08-28T16:28:10.418Z,1.02
2023-08-28T16:30:37.823Z,0.95
2023-08-28T16:33:05.593Z,1.50
2023-08-28T16:35:33.305Z,0.80
2023-08-28T16:38:01.355Z,0.80
2023-08-28T16:40:30.213Z,0.90
2023-08-28T16:42:59.356Z,0.52
2023-08-28T16:45:26.688Z,0.80
2023-08-28T16:47:54.045Z,0.77
2023-08-28T16:50:21.377Z,1.50
2023-08-28T16:52:48.760Z,1.25
2023-08-28T16:55:16.094Z,0.60
2023-08-28T16:57:43.436Z,0.80
2023-08-28T17:00:13.046Z,0.93
2023-08-28T17:02:41.892Z,0.52
2023-08-28T17:05:09.381Z,0.82
2023-08-28T17:07:36.644Z,0.80
2023-08-28T17:10:04.717Z,0.80
2023-08-28T17:12:33.227Z,0.77
2023-08-28T17:15:00.514Z,0.60
2023-08-28T17:17:27.971Z,0.68
2023-08-28T17:19:55.366Z,0.70
2023-08-28T17:22:23.282Z,0.82
2023-08-28T17:24:52.248Z,0.95
2023-08-28T17:29:47.645Z,1.02
2023-08-28T17:32:15.184Z,0.80
2023-08-28T17:34:43.417Z,0.93
2023-08-28T17:37:10.782Z,1.63
2023-08-28T17:39:38.927Z,0.70
2023-08-28T17:42:09.923Z,0.60
2023-08-28T17:44:37.265Z,0.80
2023-08-28T17:47:04.733Z,0.82
2023-08-28T17:49:32.103Z,0.68
2023-08-28T17:51:59.441Z,0.85
2023-08-28T17:54:27.602Z,1.10
2023-08-28T17:56:54.968Z,1.23
2023-08-28T17:59:22.294Z,0.57
2023-08-28T18:01:49.779Z,0.82
2023-08-28T18:04:17.193Z,0.70
2023-08-28T18:06:46.540Z,0.55
2023-08-28T18:09:14.027Z,0.70
2023-08-28T18:11:46.912Z,0.80
2023-08-28T18:14:14.829Z,1.00
2023-08-28T18:16:42.370Z,0.65
2023-08-28T18:19:09.634Z,1.02
2023-08-28T18:21:38.955Z,1.00
2023-08-28T18:24:08.230Z,1.77
2023-08-28T18:26:35.540Z,1.40
2023-08-28T18:29:03.841Z,0.90
2023-08-28T18:31:31.182Z,0.90
2023-08-28T18:33:58.876Z,1.65
2023-08-28T18:36:26.873Z,0.90
2023-08-28T18:38:54.184Z,0.95
2023-08-28T18:41:22.837Z,0.93
2023-08-28T18:43:50.162Z,1.05
2023-08-28T18:46:17.588Z,0.80
2023-08-28T18:48:45.113Z,1.30
2023-08-28T18:51:12.387Z,1.20
2023-08-28T18:53:39.867Z,1.17
2023-08-28T18:56:07.157Z,1.02
2023-08-28T18:58:34.510Z,1.00
2023-08-28T19:01:01.993Z,0.90
2023-08-28T19:03:29.383Z,1.13
2023-08-28T19:05:56.810Z,1.23
2023-08-28T19:08:24.152Z,1.10
2023-08-28T19:10:51.576Z,1.17
2023-08-28T19:13:19.800Z,1.65
2023-08-28T19:15:50.246Z,0.90
2023-08-28T19:18:18.198Z,1.00
2023-08-28T19:21:01.062Z,0.98
2023-08-28T19:23:29.776Z,1.20
2023-08-28T19:25:58.419Z,1.05
2023-08-28T19:28:26.705Z,1.20
2023-08-28T19:30:54.946Z,0.93
2023-08-28T19:33:22.322Z,1.00
2023-08-28T19:35:50.184Z,1.10
2023-08-28T19:38:17.544Z,1.48
2023-08-28T19:40:44.904Z,1.20
2023-08-28T19:43:12.255Z,1.40
2023-08-28T19:45:39.659Z,1.40
2023-08-28T19:48:07.702Z,1.33
2023-08-28T19:50:35.358Z,1.88
2023-08-28T19:53:05.051Z,1.20
2023-08-28T19:55:35.784Z,1.35
2023-08-28T19:58:04.259Z,1.00
2023-08-28T20:00:32.013Z,1.40
2023-08-28T20:03:00.006Z,1.77
2023-08-28T20:05:27.404Z,1.97
2023-08-28T20:07:54.730Z,1.88
2023-08-28T20:10:22.145Z,1.30
2023-08-28T20:12:49.572Z,1.60
2023-08-28T20:15:17.991Z,1.60
2023-08-28T20:17:45.365Z,2.00
2023-08-28T20:20:14.070Z,1.75
2023-08-28T20:22:42.912Z,1.60
2023-08-28T20:25:10.659Z,1.67
2023-08-28T20:27:38.597Z,1.80
2023-08-28T20:30:09.146Z,1.73
2023-08-28T20:32:36.549Z,2.35
2023-08-28T20:35:05.976Z,1.65
2023-08-28T20:37:34.288Z,1.60
2023-08-28T20:40:01.627Z,1.70
2023-08-28T20:42:28.943Z,1.48
2023-08-28T20:44:58.911Z,2.00
2023-08-28T20:47:33.614Z,2.00
2023-08-28T20:50:01.038Z,1.90
2023-08-28T20:52:28.399Z,2.38
2023-08-28T20:54:55.638Z,1.95
2023-08-28T20:57:22.955Z,2.50
2023-08-28T20:59:50.220Z,2.42
2023-08-28T21:02:17.517Z,2.50
2023-08-28T21:04:44.791Z,3.05
2023-08-28T21:07:12.497Z,3.45
2023-08-28T21:09:39.943Z,2.17
2023-08-28T21:12:07.540Z,2.15
2023-08-28T21:14:34.837Z,2.70
2023-08-28T21:17:02.136Z,2.10
2023-08-28T21:19:29.956Z,3.33
2023-08-28T21:21:59.691Z,2.20
2023-08-28T21:24:29.536Z,2.58
2023-08-28T21:26:56.875Z,2.63
2023-08-28T21:29:24.290Z,2.55
2023-08-28T21:31:51.711Z,2.70
2023-08-28T21:34:18.981Z,3.00
2023-08-28T21:36:46.256Z,2.60
2023-08-28T21:39:13.800Z,3.20
2023-08-28T21:41:41.232Z,2.90
2023-08-28T21:44:09.364Z,2.60
2023-08-28T21:46:37.234Z,3.77
2023-08-28T21:49:22.840Z,2.28
2023-08-28T21:52:08.576Z,3.65
2023-08-28T21:54:54.379Z,2.17
2023-08-28T21:57:40.615Z,2.53
2023-08-28T22:00:26.814Z,2.58
2023-08-28T22:03:13.402Z,2.70
2023-08-28T22:06:00.337Z,2.88
2023-08-28T22:08:28.001Z,2.83
2023-08-28T22:11:20.806Z,3.58
2023-08-28T22:13:56.958Z,2.95
2023-08-28T22:16:24.427Z,3.45
2023-08-28T22:18:51.800Z,3.75
2023-08-28T22:21:19.122Z,3.10
2023-08-28T22:23:46.441Z,2.95
2023-08-28T22:26:15.951Z,3.28
2023-08-28T22:28:43.407Z,2.90
2023-08-28T22:31:10.882Z,3.53
2023-08-28T22:33:38.308Z,3.35
2023-08-28T22:36:05.749Z,4.47
2023-08-28T22:38:33.038Z,3.83
2023-08-28T22:41:02.513Z,4.00
2023-08-28T22:43:31.172Z,3.17
2023-08-28T22:45:58.497Z,3.15
2023-08-28T22:48:25.818Z,3.50
2023-08-28T22:50:53.175Z,3.45
2023-08-28T22:53:20.635Z,4.32
2023-08-28T22:55:48.141Z,3.63
2023-08-28T22:58:15.742Z,3.45
2023-08-28T23:00:43.337Z,3.00
2023-08-28T23:03:10.887Z,4.15
2023-08-28T23:05:47.514Z,3.58
2023-08-28T23:08:15.122Z,3.00
2023-08-28T23:10:42.733Z,4.00
2023-08-28T23:13:10.049Z,3.50
2023-08-28T23:15:37.987Z,3.33
2023-08-28T23:18:06.383Z,4.07
2023-08-28T23:20:35.185Z,4.20
2023-08-28T23:23:02.550Z,3.28
2023-08-28T23:25:29.888Z,3.50
2023-08-28T23:27:58.712Z,3.25
2023-08-28T23:30:26.033Z,4.93
2023-08-28T23:32:53.523Z,3.60
2023-08-28T23:35:21.742Z,3.78
2023-08-28T23:37:49.481Z,3.17
2023-08-28T23:40:16.808Z,3.78
2023-08-28T23:42:44.106Z,3.55
2023-08-28T23:45:11.940Z,3.75
2023-08-28T23:47:39.336Z,3.35
2023-08-28T23:50:07.251Z,4.18
2023-08-28T23:52:34.665Z,3.90
2023-08-28T23:55:01.998Z,4.03
2023-08-28T23:57:29.533Z,3.53
2023-08-28T23:59:56.833Z,3.78
